sensor_id;sensor_type;location;lat;lon;timestamp;temperature;humidity
19680;DHT22;9989;48.962;9.182;2024-01-06T00:00:20;6.70;99.90
19680;DHT22;9989;48.962;9.182;2024-01-06T00:02:49;6.80;99.90
19680;DHT22;9989;48.962;9.182;2024-01-06T00:05:14;6.80;99.90
19680;DHT22;9989;48.962;9.182;2024-01-06T00:07:40;6.80;99.90
19680;DHT22;9989;48.962;9.182;2024-01-06T00:10:06;6.80;99.90
19680;DHT22;9989;48.962;9.182;2024-01-06T00:12:32;6.70;99.90
19680;DHT22;9989;48.962;9.182;2024-01-06T00:14:58;6.70;99.90
19680;DHT22;9989;48.962;9.182;2024-01-06T00:17:23;6.70;99.90
19680;DHT22;9989;48.962;9.182;2024-01-06T00:19:49;6.70;99.90
19680;DHT22;9989;48.962;9.182;2024-01-06T00:22:20;6.70;99.90
19680;DHT22;9989;48.962;9.182;2024-01-06T00:24:46;6.80;99.90
19680;DHT22;9989;48.962;9.182;2024-01-06T00:27:12;6.80;99.90
19680;DHT22;9989;48.962;9.182;2024-01-06T00:29:39;6.80;99.90
19680;DHT22;9989;48.962;9.182;2024-01-06T00:32:05;6.80;99.90
19680;DHT22;9989;48.962;9.182;2024-01-06T00:34:30;6.80;99.90
19680;DHT22;9989;48.962;9.182;2024-01-06T00:36:56;6.80;99.90
19680;DHT22;9989;48.962;9.182;2024-01-06T00:39:22;6.80;99.90
19680;DHT22;9989;48.962;9.182;2024-01-06T00:41:47;6.80;99.90
19680;DHT22;9989;48.962;9.182;2024-01-06T00:44:13;6.80;99.90
19680;DHT22;9989;48.962;9.182;2024-01-06T00:46:39;6.80;99.90
19680;DHT22;9989;48.962;9.182;2024-01-06T00:49:04;6.80;99.90
19680;DHT22;9989;48.962;9.182;2024-01-06T00:51:30;6.90;99.90
19680;DHT22;9989;48.962;9.182;2024-01-06T00:53:56;6.90;99.90
19680;DHT22;9989;48.962;9.182;2024-01-06T00:56:22;6.90;99.90
19680;DHT22;9989;48.962;9.182;2024-01-06T00:58:48;6.90;99.90
19680;DHT22;9989;48.962;9.182;2024-01-06T01:01:13;6.90;99.90
19680;DHT22;9989;48.962;9.182;2024-01-06T01:03:39;6.90;99.90
19680;DHT22;9989;48.962;9.182;2024-01-06T01:06:04;6.90;99.90
19680;DHT22;9989;48.962;9.182;2024-01-06T01:08:30;6.90;99.90
19680;DHT22;9989;48.962;9.182;2024-01-06T01:10:56;6.90;99.90
19680;DHT22;9989;48.962;9.182;2024-01-06T01:13:22;6.90;99.90
19680;DHT22;9989;48.962;9.182;2024-01-06T01:15:48;6.90;99.90
19680;DHT22;9989;48.962;9.182;2024-01-06T01:18:14;6.90;99.90
19680;DHT22;9989;48.962;9.182;2024-01-06T01:20:39;6.90;99.90
19680;DHT22;9989;48.962;9.182;2024-01-06T01:23:07;6.90;99.90
19680;DHT22;9989;48.962;9.182;2024-01-06T01:25:33;6.90;99.90
19680;DHT22;9989;48.962;9.182;2024-01-06T01:27:58;6.90;99.90
19680;DHT22;9989;48.962;9.182;2024-01-06T01:30:24;6.90;99.90
19680;DHT22;9989;48.962;9.182;2024-01-06T01:32:50;6.90;99.90
19680;DHT22;9989;48.962;9.182;2024-01-06T01:35:15;6.80;99.90
19680;DHT22;9989;48.962;9.182;2024-01-06T01:37:41;6.90;99.90
19680;DHT22;9989;48.962;9.182;2024-01-06T01:40:07;6.80;99.90
19680;DHT22;9989;48.962;9.182;2024-01-06T01:42:33;6.90;99.90
19680;DHT22;9989;48.962;9.182;2024-01-06T01:44:59;6.90;99.90
19680;DHT22;9989;48.962;9.182;2024-01-06T01:47:25;6.90;99.90
19680;DHT22;9989;48.962;9.182;2024-01-06T01:49:53;6.90;99.90
19680;DHT22;9989;48.962;9.182;2024-01-06T01:52:20;6.90;99.90
19680;DHT22;9989;48.962;9.182;2024-01-06T01:54:46;6.90;99.90
19680;DHT22;9989;48.962;9.182;2024-01-06T01:57:13;6.90;99.90
19680;DHT22;9989;48.962;9.182;2024-01-06T01:59:39;6.90;99.90
19680;DHT22;9989;48.962;9.182;2024-01-06T02:02:06;7.00;99.90
19680;DHT22;9989;48.962;9.182;2024-01-06T02:04:32;7.00;99.90
19680;DHT22;9989;48.962;9.182;2024-01-06T02:06:58;7.00;99.90
19680;DHT22;9989;48.962;9.182;2024-01-06T02:09:24;7.00;99.90
19680;DHT22;9989;48.962;9.182;2024-01-06T02:11:52;7.00;99.90
19680;DHT22;9989;48.962;9.182;2024-01-06T02:14:18;7.00;99.90
19680;DHT22;9989;48.962;9.182;2024-01-06T02:16:44;6.90;99.90
19680;DHT22;9989;48.962;9.182;2024-01-06T02:19:11;6.90;99.90
19680;DHT22;9989;48.962;9.182;2024-01-06T02:21:41;6.90;99.90
19680;DHT22;9989;48.962;9.182;2024-01-06T02:24:07;6.80;99.90
19680;DHT22;9989;48.962;9.182;2024-01-06T02:26:34;6.80;99.90
19680;DHT22;9989;48.962;9.182;2024-01-06T02:29:00;6.80;99.90
19680;DHT22;9989;48.962;9.182;2024-01-06T02:31:27;6.80;99.90
19680;DHT22;9989;48.962;9.182;2024-01-06T02:33:53;6.80;99.90
19680;DHT22;9989;48.962;9.182;2024-01-06T02:36:18;6.80;99.90
19680;DHT22;9989;48.962;9.182;2024-01-06T02:38:44;6.80;99.90
19680;DHT22;9989;48.962;9.182;2024-01-06T02:41:10;6.80;99.90
19680;DHT22;9989;48.962;9.182;2024-01-06T02:43:35;6.70;99.90
19680;DHT22;9989;48.962;9.182;2024-01-06T02:46:01;6.70;99.90
19680;DHT22;9989;48.962;9.182;2024-01-06T02:48:26;6.60;99.90
19680;DHT22;9989;48.962;9.182;2024-01-06T02:50:52;6.60;99.90
19680;DHT22;9989;48.962;9.182;2024-01-06T02:53:18;6.60;99.90
19680;DHT22;9989;48.962;9.182;2024-01-06T02:55:43;6.60;99.90
19680;DHT22;9989;48.962;9.182;2024-01-06T02:58:09;6.60;99.90
19680;DHT22;9989;48.962;9.182;2024-01-06T03:00:34;6.60;99.90
19680;DHT22;9989;48.962;9.182;2024-01-06T03:03:00;6.60;99.90
19680;DHT22;9989;48.962;9.182;2024-01-06T03:05:26;6.60;99.90
19680;DHT22;9989;48.962;9.182;2024-01-06T03:07:51;6.60;99.90
19680;DHT22;9989;48.962;9.182;2024-01-06T03:10:17;6.60;99.90
19680;DHT22;9989;48.962;9.182;2024-01-06T03:12:43;6.70;99.90
19680;DHT22;9989;48.962;9.182;2024-01-06T03:15:08;6.60;99.90
19680;DHT22;9989;48.962;9.182;2024-01-06T03:17:35;6.60;99.90
19680;DHT22;9989;48.962;9.182;2024-01-06T03:20:00;6.70;99.90
19680;DHT22;9989;48.962;9.182;2024-01-06T03:22:26;6.60;99.90
19680;DHT22;9989;48.962;9.182;2024-01-06T03:24:51;6.60;99.90
19680;DHT22;9989;48.962;9.182;2024-01-06T03:27:17;6.60;99.90
19680;DHT22;9989;48.962;9.182;2024-01-06T03:29:43;6.60;99.90
19680;DHT22;9989;48.962;9.182;2024-01-06T03:32:08;6.60;99.90
19680;DHT22;9989;48.962;9.182;2024-01-06T03:34:34;6.50;99.90
19680;DHT22;9989;48.962;9.182;2024-01-06T03:37:00;6.60;99.90
19680;DHT22;9989;48.962;9.182;2024-01-06T03:39:25;6.50;99.90
19680;DHT22;9989;48.962;9.182;2024-01-06T03:41:51;6.50;99.90
19680;DHT22;9989;48.962;9.182;2024-01-06T03:44:17;6.50;99.90
19680;DHT22;9989;48.962;9.182;2024-01-06T03:46:42;6.50;99.90
19680;DHT22;9989;48.962;9.182;2024-01-06T03:49:08;6.50;99.90
19680;DHT22;9989;48.962;9.182;2024-01-06T03:51:34;6.50;99.90
19680;DHT22;9989;48.962;9.182;2024-01-06T03:53:59;6.50;99.90
19680;DHT22;9989;48.962;9.182;2024-01-06T03:56:25;6.50;99.90
19680;DHT22;9989;48.962;9.182;2024-01-06T03:58:50;6.50;99.90
19680;DHT22;9989;48.962;9.182;2024-01-06T04:01:16;6.50;99.90
19680;DHT22;9989;48.962;9.182;2024-01-06T04:03:42;6.50;99.90
19680;DHT22;9989;48.962;9.182;2024-01-06T04:06:07;6.60;99.90
19680;DHT22;9989;48.962;9.182;2024-01-06T04:08:33;6.60;99.90
19680;DHT22;9989;48.962;9.182;2024-01-06T04:10:59;6.60;99.90
19680;DHT22;9989;48.962;9.182;2024-01-06T04:13:25;6.60;99.90
19680;DHT22;9989;48.962;9.182;2024-01-06T04:15:51;6.60;99.90
19680;DHT22;9989;48.962;9.182;2024-01-06T04:18:17;6.60;99.90
19680;DHT22;9989;48.962;9.182;2024-01-06T04:20:43;6.60;99.90
19680;DHT22;9989;48.962;9.182;2024-01-06T04:23:09;6.60;99.90
19680;DHT22;9989;48.962;9.182;2024-01-06T04:25:34;6.60;99.90
19680;DHT22;9989;48.962;9.182;2024-01-06T04:28:00;6.60;99.90
19680;DHT22;9989;48.962;9.182;2024-01-06T04:30:26;6.60;99.90
19680;DHT22;9989;48.962;9.182;2024-01-06T04:32:51;6.60;99.90
19680;DHT22;9989;48.962;9.182;2024-01-06T04:35:19;6.70;99.90
19680;DHT22;9989;48.962;9.182;2024-01-06T04:37:45;6.70;99.90
19680;DHT22;9989;48.962;9.182;2024-01-06T04:40:11;6.70;99.90
19680;DHT22;9989;48.962;9.182;2024-01-06T04:42:37;6.70;99.90
19680;DHT22;9989;48.962;9.182;2024-01-06T04:45:03;6.80;99.90
19680;DHT22;9989;48.962;9.182;2024-01-06T04:47:29;6.80;99.90
19680;DHT22;9989;48.962;9.182;2024-01-06T04:49:56;6.80;99.90
19680;DHT22;9989;48.962;9.182;2024-01-06T04:52:22;6.80;99.90
19680;DHT22;9989;48.962;9.182;2024-01-06T04:54:48;6.70;99.90
19680;DHT22;9989;48.962;9.182;2024-01-06T04:57:13;6.70;99.90
19680;DHT22;9989;48.962;9.182;2024-01-06T04:59:39;6.70;99.90
19680;DHT22;9989;48.962;9.182;2024-01-06T05:02:05;6.70;99.90
19680;DHT22;9989;48.962;9.182;2024-01-06T05:04:31;6.70;99.90
19680;DHT22;9989;48.962;9.182;2024-01-06T05:06:58;6.70;99.90
19680;DHT22;9989;48.962;9.182;2024-01-06T05:09:24;6.70;99.90
19680;DHT22;9989;48.962;9.182;2024-01-06T05:11:50;6.60;99.90
19680;DHT22;9989;48.962;9.182;2024-01-06T05:14:16;6.60;99.90
19680;DHT22;9989;48.962;9.182;2024-01-06T05:16:41;6.60;99.90
19680;DHT22;9989;48.962;9.182;2024-01-06T05:19:08;6.60;99.90
19680;DHT22;9989;48.962;9.182;2024-01-06T05:21:34;6.70;99.90
19680;DHT22;9989;48.962;9.182;2024-01-06T05:24:00;6.60;99.90
19680;DHT22;9989;48.962;9.182;2024-01-06T05:26:26;6.60;99.90
19680;DHT22;9989;48.962;9.182;2024-01-06T05:28:52;6.60;99.90
19680;DHT22;9989;48.962;9.182;2024-01-06T05:31:17;6.60;99.90
19680;DHT22;9989;48.962;9.182;2024-01-06T05:33:43;6.60;99.90
19680;DHT22;9989;48.962;9.182;2024-01-06T05:36:09;6.50;99.90
19680;DHT22;9989;48.962;9.182;2024-01-06T05:38:35;6.60;99.90
19680;DHT22;9989;48.962;9.182;2024-01-06T05:41:01;6.60;99.90
19680;DHT22;9989;48.962;9.182;2024-01-06T05:43:27;6.60;99.90
19680;DHT22;9989;48.962;9.182;2024-01-06T05:45:53;6.60;99.90
19680;DHT22;9989;48.962;9.182;2024-01-06T05:48:18;6.50;99.90
19680;DHT22;9989;48.962;9.182;2024-01-06T05:50:44;6.50;99.90
19680;DHT22;9989;48.962;9.182;2024-01-06T05:53:10;6.50;99.90
19680;DHT22;9989;48.962;9.182;2024-01-06T05:55:36;6.50;99.90
19680;DHT22;9989;48.962;9.182;2024-01-06T05:58:01;6.50;99.90
19680;DHT22;9989;48.962;9.182;2024-01-06T06:00:27;6.50;99.90
19680;DHT22;9989;48.962;9.182;2024-01-06T06:02:53;6.50;99.90
19680;DHT22;9989;48.962;9.182;2024-01-06T06:05:19;6.50;99.90
19680;DHT22;9989;48.962;9.182;2024-01-06T06:07:45;6.50;99.90
19680;DHT22;9989;48.962;9.182;2024-01-06T06:10:11;6.50;99.90
19680;DHT22;9989;48.962;9.182;2024-01-06T06:12:38;6.50;99.90
19680;DHT22;9989;48.962;9.182;2024-01-06T06:15:05;6.50;99.90
19680;DHT22;9989;48.962;9.182;2024-01-06T06:17:31;6.60;99.90
19680;DHT22;9989;48.962;9.182;2024-01-06T06:19:57;6.60;99.90
19680;DHT22;9989;48.962;9.182;2024-01-06T06:22:24;6.50;99.90
19680;DHT22;9989;48.962;9.182;2024-01-06T06:24:52;6.60;99.90
19680;DHT22;9989;48.962;9.182;2024-01-06T06:27:17;6.60;99.90
19680;DHT22;9989;48.962;9.182;2024-01-06T06:29:43;6.50;99.90
19680;DHT22;9989;48.962;9.182;2024-01-06T06:32:09;6.50;99.90
19680;DHT22;9989;48.962;9.182;2024-01-06T06:34:34;6.60;99.90
19680;DHT22;9989;48.962;9.182;2024-01-06T06:37:00;6.50;99.90
19680;DHT22;9989;48.962;9.182;2024-01-06T06:39:25;6.50;99.90
19680;DHT22;9989;48.962;9.182;2024-01-06T06:41:52;6.60;99.90
19680;DHT22;9989;48.962;9.182;2024-01-06T06:44:18;6.60;99.90
19680;DHT22;9989;48.962;9.182;2024-01-06T06:46:43;6.60;99.90
19680;DHT22;9989;48.962;9.182;2024-01-06T06:49:09;6.60;99.90
19680;DHT22;9989;48.962;9.182;2024-01-06T06:51:35;6.60;99.90
19680;DHT22;9989;48.962;9.182;2024-01-06T06:54:00;6.50;99.90
19680;DHT22;9989;48.962;9.182;2024-01-06T06:56:26;6.50;99.90
19680;DHT22;9989;48.962;9.182;2024-01-06T06:58:51;6.50;99.90
19680;DHT22;9989;48.962;9.182;2024-01-06T07:01:18;6.60;99.90
19680;DHT22;9989;48.962;9.182;2024-01-06T07:03:43;6.50;99.90
19680;DHT22;9989;48.962;9.182;2024-01-06T07:06:12;6.50;99.90
19680;DHT22;9989;48.962;9.182;2024-01-06T07:08:38;6.50;99.90
19680;DHT22;9989;48.962;9.182;2024-01-06T07:11:04;6.50;99.90
19680;DHT22;9989;48.962;9.182;2024-01-06T07:13:30;6.60;99.90
19680;DHT22;9989;48.962;9.182;2024-01-06T07:15:55;6.60;99.90
19680;DHT22;9989;48.962;9.182;2024-01-06T07:18:21;6.60;99.90
19680;DHT22;9989;48.962;9.182;2024-01-06T07:20:48;6.60;99.90
19680;DHT22;9989;48.962;9.182;2024-01-06T07:23:14;6.60;99.90
19680;DHT22;9989;48.962;9.182;2024-01-06T07:25:40;6.60;99.90
19680;DHT22;9989;48.962;9.182;2024-01-06T07:28:06;6.60;99.90
19680;DHT22;9989;48.962;9.182;2024-01-06T07:30:33;6.60;99.90
19680;DHT22;9989;48.962;9.182;2024-01-06T07:32:59;6.60;99.90
19680;DHT22;9989;48.962;9.182;2024-01-06T07:35:25;6.70;99.90
19680;DHT22;9989;48.962;9.182;2024-01-06T07:37:51;6.70;99.90
19680;DHT22;9989;48.962;9.182;2024-01-06T07:40:16;6.70;99.90
19680;DHT22;9989;48.962;9.182;2024-01-06T07:42:43;6.70;99.90
19680;DHT22;9989;48.962;9.182;2024-01-06T07:45:09;6.70;99.90
19680;DHT22;9989;48.962;9.182;2024-01-06T07:47:35;6.80;99.90
19680;DHT22;9989;48.962;9.182;2024-01-06T07:50:01;6.80;99.90
19680;DHT22;9989;48.962;9.182;2024-01-06T07:52:26;6.80;99.90
19680;DHT22;9989;48.962;9.182;2024-01-06T07:54:52;6.80;99.90
19680;DHT22;9989;48.962;9.182;2024-01-06T07:57:18;6.80;99.90
19680;DHT22;9989;48.962;9.182;2024-01-06T07:59:45;6.90;99.90
19680;DHT22;9989;48.962;9.182;2024-01-06T08:02:11;6.90;99.90
19680;DHT22;9989;48.962;9.182;2024-01-06T08:04:36;6.90;99.90
19680;DHT22;9989;48.962;9.182;2024-01-06T08:07:02;6.90;99.90
19680;DHT22;9989;48.962;9.182;2024-01-06T08:09:28;6.90;99.90
19680;DHT22;9989;48.962;9.182;2024-01-06T08:11:53;6.90;99.90
19680;DHT22;9989;48.962;9.182;2024-01-06T08:14:19;7.00;99.90
19680;DHT22;9989;48.962;9.182;2024-01-06T08:16:45;7.00;99.90
19680;DHT22;9989;48.962;9.182;2024-01-06T08:19:11;7.00;99.90
19680;DHT22;9989;48.962;9.182;2024-01-06T08:21:37;7.00;99.90
19680;DHT22;9989;48.962;9.182;2024-01-06T08:24:02;7.00;99.90
19680;DHT22;9989;48.962;9.182;2024-01-06T08:26:28;7.10;99.90
19680;DHT22;9989;48.962;9.182;2024-01-06T08:28:54;7.10;99.90
19680;DHT22;9989;48.962;9.182;2024-01-06T08:31:19;7.10;99.90
19680;DHT22;9989;48.962;9.182;2024-01-06T08:33:45;7.20;99.90
19680;DHT22;9989;48.962;9.182;2024-01-06T08:36:11;7.10;99.90
19680;DHT22;9989;48.962;9.182;2024-01-06T08:38:37;7.20;99.90
19680;DHT22;9989;48.962;9.182;2024-01-06T08:41:03;7.20;99.90
19680;DHT22;9989;48.962;9.182;2024-01-06T08:43:29;7.20;99.90
19680;DHT22;9989;48.962;9.182;2024-01-06T08:45:54;7.20;99.90
19680;DHT22;9989;48.962;9.182;2024-01-06T08:48:20;7.20;99.90
19680;DHT22;9989;48.962;9.182;2024-01-06T08:50:47;7.10;99.90
19680;DHT22;9989;48.962;9.182;2024-01-06T08:53:12;7.10;99.90
19680;DHT22;9989;48.962;9.182;2024-01-06T08:55:38;7.10;99.90
19680;DHT22;9989;48.962;9.182;2024-01-06T08:58:03;7.10;99.90
19680;DHT22;9989;48.962;9.182;2024-01-06T09:00:29;7.10;99.90
19680;DHT22;9989;48.962;9.182;2024-01-06T09:02:55;7.20;99.90
19680;DHT22;9989;48.962;9.182;2024-01-06T09:05:21;7.20;99.90
19680;DHT22;9989;48.962;9.182;2024-01-06T09:07:46;7.20;99.90
19680;DHT22;9989;48.962;9.182;2024-01-06T09:10:18;7.30;99.90
19680;DHT22;9989;48.962;9.182;2024-01-06T09:12:44;7.40;99.90
19680;DHT22;9989;48.962;9.182;2024-01-06T09:15:10;7.40;99.90
19680;DHT22;9989;48.962;9.182;2024-01-06T09:17:36;7.50;99.90
19680;DHT22;9989;48.962;9.182;2024-01-06T09:20:02;7.50;99.90
19680;DHT22;9989;48.962;9.182;2024-01-06T09:22:28;7.60;99.90
19680;DHT22;9989;48.962;9.182;2024-01-06T09:24:54;7.70;99.90
19680;DHT22;9989;48.962;9.182;2024-01-06T09:27:19;7.70;99.90
19680;DHT22;9989;48.962;9.182;2024-01-06T09:29:45;7.70;99.90
19680;DHT22;9989;48.962;9.182;2024-01-06T09:32:11;7.70;99.90
19680;DHT22;9989;48.962;9.182;2024-01-06T09:34:36;7.70;99.90
19680;DHT22;9989;48.962;9.182;2024-01-06T09:37:02;7.70;99.90
19680;DHT22;9989;48.962;9.182;2024-01-06T09:39:28;7.60;99.90
19680;DHT22;9989;48.962;9.182;2024-01-06T09:41:56;7.60;99.90
19680;DHT22;9989;48.962;9.182;2024-01-06T09:44:22;7.60;99.90
19680;DHT22;9989;48.962;9.182;2024-01-06T09:46:47;7.60;99.90
19680;DHT22;9989;48.962;9.182;2024-01-06T09:49:15;7.60;99.90
19680;DHT22;9989;48.962;9.182;2024-01-06T09:51:41;7.60;99.90
19680;DHT22;9989;48.962;9.182;2024-01-06T09:54:12;7.60;99.90
19680;DHT22;9989;48.962;9.182;2024-01-06T09:56:39;7.60;99.90
19680;DHT22;9989;48.962;9.182;2024-01-06T09:59:05;7.60;99.90
19680;DHT22;9989;48.962;9.182;2024-01-06T10:01:30;7.50;99.90
19680;DHT22;9989;48.962;9.182;2024-01-06T10:03:56;7.50;99.90
19680;DHT22;9989;48.962;9.182;2024-01-06T10:06:22;7.50;99.90
19680;DHT22;9989;48.962;9.182;2024-01-06T10:08:52;7.50;99.90
19680;DHT22;9989;48.962;9.182;2024-01-06T10:11:24;7.40;99.90
19680;DHT22;9989;48.962;9.182;2024-01-06T10:13:50;7.50;99.90
19680;DHT22;9989;48.962;9.182;2024-01-06T10:16:16;7.40;99.90
19680;DHT22;9989;48.962;9.182;2024-01-06T10:18:44;7.50;99.90
19680;DHT22;9989;48.962;9.182;2024-01-06T10:21:10;7.40;99.90
19680;DHT22;9989;48.962;9.182;2024-01-06T10:23:36;7.50;99.90
19680;DHT22;9989;48.962;9.182;2024-01-06T10:26:02;7.50;99.90
19680;DHT22;9989;48.962;9.182;2024-01-06T10:28:28;7.50;99.90
19680;DHT22;9989;48.962;9.182;2024-01-06T10:30:57;7.60;99.90
19680;DHT22;9989;48.962;9.182;2024-01-06T10:33:25;7.60;99.90
19680;DHT22;9989;48.962;9.182;2024-01-06T10:35:51;7.60;99.90
19680;DHT22;9989;48.962;9.182;2024-01-06T10:38:17;7.60;99.90
19680;DHT22;9989;48.962;9.182;2024-01-06T10:43:24;7.70;99.90
19680;DHT22;9989;48.962;9.182;2024-01-06T10:45:51;7.70;99.90
19680;DHT22;9989;48.962;9.182;2024-01-06T10:48:19;7.70;99.90
19680;DHT22;9989;48.962;9.182;2024-01-06T10:50:46;7.80;99.90
19680;DHT22;9989;48.962;9.182;2024-01-06T10:53:13;7.80;99.90
19680;DHT22;9989;48.962;9.182;2024-01-06T10:55:40;7.80;99.90
19680;DHT22;9989;48.962;9.182;2024-01-06T10:58:08;7.80;99.90
19680;DHT22;9989;48.962;9.182;2024-01-06T11:00:34;7.80;99.90
19680;DHT22;9989;48.962;9.182;2024-01-06T11:03:00;7.80;99.90
19680;DHT22;9989;48.962;9.182;2024-01-06T11:05:27;7.80;99.90
19680;DHT22;9989;48.962;9.182;2024-01-06T11:07:53;7.80;99.90
19680;DHT22;9989;48.962;9.182;2024-01-06T11:10:25;7.80;99.90
19680;DHT22;9989;48.962;9.182;2024-01-06T11:13:12;7.80;99.90
19680;DHT22;9989;48.962;9.182;2024-01-06T11:15:49;7.90;99.90
19680;DHT22;9989;48.962;9.182;2024-01-06T11:18:36;7.80;99.90
19680;DHT22;9989;48.962;9.182;2024-01-06T11:23:39;7.90;99.90
19680;DHT22;9989;48.962;9.182;2024-01-06T11:26:09;7.80;99.90
19680;DHT22;9989;48.962;9.182;2024-01-06T11:28:48;7.80;99.90
19680;DHT22;9989;48.962;9.182;2024-01-06T11:31:15;7.80;99.90
19680;DHT22;9989;48.962;9.182;2024-01-06T11:33:44;7.90;99.90
19680;DHT22;9989;48.962;9.182;2024-01-06T11:36:17;7.80;99.90
19680;DHT22;9989;48.962;9.182;2024-01-06T11:38:46;7.90;99.90
19680;DHT22;9989;48.962;9.182;2024-01-06T11:41:48;7.80;99.90
19680;DHT22;9989;48.962;9.182;2024-01-06T11:44:23;7.80;99.90
19680;DHT22;9989;48.962;9.182;2024-01-06T11:46:49;7.90;99.90
19680;DHT22;9989;48.962;9.182;2024-01-06T11:49:16;7.90;99.90
19680;DHT22;9989;48.962;9.182;2024-01-06T11:51:41;7.90;99.90
19680;DHT22;9989;48.962;9.182;2024-01-06T11:54:08;7.90;99.90
19680;DHT22;9989;48.962;9.182;2024-01-06T11:56:35;7.90;99.90
19680;DHT22;9989;48.962;9.182;2024-01-06T11:59:00;7.90;99.90
19680;DHT22;9989;48.962;9.182;2024-01-06T12:01:26;8.00;99.90
19680;DHT22;9989;48.962;9.182;2024-01-06T12:03:55;8.00;99.90
19680;DHT22;9989;48.962;9.182;2024-01-06T12:06:21;8.10;99.90
19680;DHT22;9989;48.962;9.182;2024-01-06T12:08:47;8.10;99.90
19680;DHT22;9989;48.962;9.182;2024-01-06T12:11:13;8.10;99.90
19680;DHT22;9989;48.962;9.182;2024-01-06T12:13:44;8.20;99.90
19680;DHT22;9989;48.962;9.182;2024-01-06T12:16:10;8.20;99.90
19680;DHT22;9989;48.962;9.182;2024-01-06T12:18:35;8.20;99.90
19680;DHT22;9989;48.962;9.182;2024-01-06T12:21:01;8.30;99.90
19680;DHT22;9989;48.962;9.182;2024-01-06T12:23:27;8.30;99.90
19680;DHT22;9989;48.962;9.182;2024-01-06T12:25:56;8.30;99.90
19680;DHT22;9989;48.962;9.182;2024-01-06T12:28:22;8.40;99.90
19680;DHT22;9989;48.962;9.182;2024-01-06T12:30:48;8.30;99.90
19680;DHT22;9989;48.962;9.182;2024-01-06T12:33:14;8.30;99.90
19680;DHT22;9989;48.962;9.182;2024-01-06T12:35:40;8.30;99.90
19680;DHT22;9989;48.962;9.182;2024-01-06T12:38:08;8.30;99.90
19680;DHT22;9989;48.962;9.182;2024-01-06T12:40:35;8.20;99.90
19680;DHT22;9989;48.962;9.182;2024-01-06T12:43:03;8.20;99.90
19680;DHT22;9989;48.962;9.182;2024-01-06T12:45:29;8.20;99.90
19680;DHT22;9989;48.962;9.182;2024-01-06T12:47:54;8.20;99.90
19680;DHT22;9989;48.962;9.182;2024-01-06T12:50:20;8.20;99.90
19680;DHT22;9989;48.962;9.182;2024-01-06T12:52:46;8.20;99.90
19680;DHT22;9989;48.962;9.182;2024-01-06T12:55:11;8.10;99.90
19680;DHT22;9989;48.962;9.182;2024-01-06T12:57:37;8.10;99.90
19680;DHT22;9989;48.962;9.182;2024-01-06T13:00:04;8.10;99.90
19680;DHT22;9989;48.962;9.182;2024-01-06T13:02:31;8.10;99.90
19680;DHT22;9989;48.962;9.182;2024-01-06T13:04:57;8.10;99.90
19680;DHT22;9989;48.962;9.182;2024-01-06T13:07:23;8.10;99.90
19680;DHT22;9989;48.962;9.182;2024-01-06T13:09:49;8.10;99.90
19680;DHT22;9989;48.962;9.182;2024-01-06T13:12:15;8.10;99.90
19680;DHT22;9989;48.962;9.182;2024-01-06T13:14:42;8.10;99.90
19680;DHT22;9989;48.962;9.182;2024-01-06T13:17:09;8.10;99.90
19680;DHT22;9989;48.962;9.182;2024-01-06T13:19:35;8.10;99.90
19680;DHT22;9989;48.962;9.182;2024-01-06T13:22:01;8.10;99.90
19680;DHT22;9989;48.962;9.182;2024-01-06T13:24:26;8.10;99.90
19680;DHT22;9989;48.962;9.182;2024-01-06T13:26:52;8.10;99.90
19680;DHT22;9989;48.962;9.182;2024-01-06T13:29:18;8.10;99.90
19680;DHT22;9989;48.962;9.182;2024-01-06T13:31:44;8.10;99.90
19680;DHT22;9989;48.962;9.182;2024-01-06T13:34:10;8.10;99.90
19680;DHT22;9989;48.962;9.182;2024-01-06T13:36:35;8.10;99.90
19680;DHT22;9989;48.962;9.182;2024-01-06T13:39:01;8.10;99.90
19680;DHT22;9989;48.962;9.182;2024-01-06T13:41:29;8.10;99.90
19680;DHT22;9989;48.962;9.182;2024-01-06T13:43:55;8.20;99.90
19680;DHT22;9989;48.962;9.182;2024-01-06T13:46:20;8.20;99.90
19680;DHT22;9989;48.962;9.182;2024-01-06T13:48:46;8.20;99.90
19680;DHT22;9989;48.962;9.182;2024-01-06T13:51:11;8.20;99.90
19680;DHT22;9989;48.962;9.182;2024-01-06T13:53:37;8.20;99.90
19680;DHT22;9989;48.962;9.182;2024-01-06T13:56:04;8.20;99.90
19680;DHT22;9989;48.962;9.182;2024-01-06T13:58:30;8.20;99.90
19680;DHT22;9989;48.962;9.182;2024-01-06T14:00:55;8.20;99.90
19680;DHT22;9989;48.962;9.182;2024-01-06T14:03:21;8.20;99.90
19680;DHT22;9989;48.962;9.182;2024-01-06T14:05:47;8.20;99.90
19680;DHT22;9989;48.962;9.182;2024-01-06T14:08:13;8.20;99.90
19680;DHT22;9989;48.962;9.182;2024-01-06T14:10:39;8.20;99.90
19680;DHT22;9989;48.962;9.182;2024-01-06T14:13:05;8.10;99.90
19680;DHT22;9989;48.962;9.182;2024-01-06T14:15:32;8.20;99.90
19680;DHT22;9989;48.962;9.182;2024-01-06T14:18:01;8.10;99.90
19680;DHT22;9989;48.962;9.182;2024-01-06T14:20:26;8.00;99.90
19680;DHT22;9989;48.962;9.182;2024-01-06T14:22:53;8.10;99.90
19680;DHT22;9989;48.962;9.182;2024-01-06T14:25:18;8.00;99.90
19680;DHT22;9989;48.962;9.182;2024-01-06T14:27:45;8.00;99.90
19680;DHT22;9989;48.962;9.182;2024-01-06T14:30:11;8.00;99.90
19680;DHT22;9989;48.962;9.182;2024-01-06T14:32:36;7.90;99.90
19680;DHT22;9989;48.962;9.182;2024-01-06T14:35:05;7.90;99.90
19680;DHT22;9989;48.962;9.182;2024-01-06T14:37:32;7.90;99.90
19680;DHT22;9989;48.962;9.182;2024-01-06T14:39:58;7.90;99.90
19680;DHT22;9989;48.962;9.182;2024-01-06T14:42:23;7.90;99.90
19680;DHT22;9989;48.962;9.182;2024-01-06T14:44:49;7.90;99.90
19680;DHT22;9989;48.962;9.182;2024-01-06T14:47:14;7.90;99.90
19680;DHT22;9989;48.962;9.182;2024-01-06T14:49:40;7.90;99.90
19680;DHT22;9989;48.962;9.182;2024-01-06T14:52:06;7.80;99.90
19680;DHT22;9989;48.962;9.182;2024-01-06T14:54:32;7.80;99.90
19680;DHT22;9989;48.962;9.182;2024-01-06T14:56:58;7.80;99.90
19680;DHT22;9989;48.962;9.182;2024-01-06T14:59:24;7.80;99.90
19680;DHT22;9989;48.962;9.182;2024-01-06T15:01:50;7.80;99.90
19680;DHT22;9989;48.962;9.182;2024-01-06T15:04:15;7.80;99.90
19680;DHT22;9989;48.962;9.182;2024-01-06T15:06:44;7.80;99.90
19680;DHT22;9989;48.962;9.182;2024-01-06T15:09:09;7.80;99.90
19680;DHT22;9989;48.962;9.182;2024-01-06T15:11:35;7.80;99.90
19680;DHT22;9989;48.962;9.182;2024-01-06T15:14:01;7.90;99.90
19680;DHT22;9989;48.962;9.182;2024-01-06T15:16:30;7.80;99.90
19680;DHT22;9989;48.962;9.182;2024-01-06T15:18:55;7.80;99.90
19680;DHT22;9989;48.962;9.182;2024-01-06T15:21:24;7.80;99.90
19680;DHT22;9989;48.962;9.182;2024-01-06T15:23:51;7.80;99.90
19680;DHT22;9989;48.962;9.182;2024-01-06T15:26:24;7.80;99.90
19680;DHT22;9989;48.962;9.182;2024-01-06T15:28:50;7.80;99.90
19680;DHT22;9989;48.962;9.182;2024-01-06T15:31:16;7.80;99.90
19680;DHT22;9989;48.962;9.182;2024-01-06T15:33:41;7.80;99.90
19680;DHT22;9989;48.962;9.182;2024-01-06T15:36:08;7.80;99.90
19680;DHT22;9989;48.962;9.182;2024-01-06T15:38:34;7.80;99.90
19680;DHT22;9989;48.962;9.182;2024-01-06T15:41:00;7.90;99.90
19680;DHT22;9989;48.962;9.182;2024-01-06T15:43:26;7.90;99.90
19680;DHT22;9989;48.962;9.182;2024-01-06T15:45:52;7.80;99.90
19680;DHT22;9989;48.962;9.182;2024-01-06T15:48:19;7.80;99.90
19680;DHT22;9989;48.962;9.182;2024-01-06T15:50:45;7.80;99.90
19680;DHT22;9989;48.962;9.182;2024-01-06T15:53:11;7.80;99.90
19680;DHT22;9989;48.962;9.182;2024-01-06T15:55:40;7.80;99.90
19680;DHT22;9989;48.962;9.182;2024-01-06T15:58:06;7.80;99.90
19680;DHT22;9989;48.962;9.182;2024-01-06T16:00:32;7.80;99.90